sensor_id;sensor_type;location;lat;lon;timestamp;P1;durP1;ratioP1;P2;durP2;ratioP2
19794;SDS011;10057;59.402;17.866;2022-08-07T00:00:29;0.80;;;0.23;;
19794;SDS011;10057;59.402;17.866;2022-08-07T00:02:56;0.57;;;0.20;;
19794;SDS011;10057;59.402;17.866;2022-08-07T00:05:23;1.13;;;0.30;;
19794;SDS011;10057;59.402;17.866;2022-08-07T00:07:52;0.50;;;0.30;;
19794;SDS011;10057;59.402;17.866;2022-08-07T00:10:25;0.50;;;0.30;;
19794;SDS011;10057;59.402;17.866;2022-08-07T00:12:58;0.40;;;0.23;;
19794;SDS011;10057;59.402;17.866;2022-08-07T00:15:47;0.50;;;0.30;;
19794;SDS011;10057;59.402;17.866;2022-08-07T00:18:17;0.40;;;0.30;;
19794;SDS011;10057;59.402;17.866;2022-08-07T00:20:50;1.17;;;0.33;;
19794;SDS011;10057;59.402;17.866;2022-08-07T00:23:26;0.47;;;0.30;;
19794;SDS011;10057;59.402;17.866;2022-08-07T00:25:55;1.03;;;0.30;;
19794;SDS011;10057;59.402;17.866;2022-08-07T00:28:28;1.37;;;0.20;;
19794;SDS011;10057;59.402;17.866;2022-08-07T00:31:00;0.50;;;0.20;;
19794;SDS011;10057;59.402;17.866;2022-08-07T00:33:38;0.80;;;0.20;;
19794;SDS011;10057;59.402;17.866;2022-08-07T00:36:06;4.53;;;0.40;;
19794;SDS011;10057;59.402;17.866;2022-08-07T00:38:33;0.33;;;0.20;;
19794;SDS011;10057;59.402;17.866;2022-08-07T00:41:04;0.33;;;0.20;;
19794;SDS011;10057;59.402;17.866;2022-08-07T00:43:40;1.10;;;0.30;;
19794;SDS011;10057;59.402;17.866;2022-08-07T00:46:27;0.67;;;0.30;;
19794;SDS011;10057;59.402;17.866;2022-08-07T00:48:56;1.93;;;0.43;;
19794;SDS011;10057;59.402;17.866;2022-08-07T00:51:27;1.50;;;0.40;;
19794;SDS011;10057;59.402;17.866;2022-08-07T00:54:15;0.40;;;0.20;;
19794;SDS011;10057;59.402;17.866;2022-08-07T00:56:45;0.43;;;0.30;;
19794;SDS011;10057;59.402;17.866;2022-08-07T00:59:15;0.30;;;0.30;;
19794;SDS011;10057;59.402;17.866;2022-08-07T01:01:45;0.37;;;0.23;;
19794;SDS011;10057;59.402;17.866;2022-08-07T01:04:14;1.77;;;0.30;;
19794;SDS011;10057;59.402;17.866;2022-08-07T01:06:50;1.33;;;0.30;;
19794;SDS011;10057;59.402;17.866;2022-08-07T01:09:18;0.53;;;0.20;;
19794;SDS011;10057;59.402;17.866;2022-08-07T01:12:05;0.20;;;0.20;;
19794;SDS011;10057;59.402;17.866;2022-08-07T01:14:53;0.63;;;0.43;;
19794;SDS011;10057;59.402;17.866;2022-08-07T01:17:28;0.93;;;0.30;;
19794;SDS011;10057;59.402;17.866;2022-08-07T01:19:57;3.57;;;0.43;;
19794;SDS011;10057;59.402;17.866;2022-08-07T01:22:29;1.93;;;0.30;;
19794;SDS011;10057;59.402;17.866;2022-08-07T01:24:56;1.27;;;0.20;;
19794;SDS011;10057;59.402;17.866;2022-08-07T01:27:25;1.17;;;0.20;;
19794;SDS011;10057;59.402;17.866;2022-08-07T01:29:57;1.40;;;0.40;;
19794;SDS011;10057;59.402;17.866;2022-08-07T01:32:25;0.87;;;0.50;;
19794;SDS011;10057;59.402;17.866;2022-08-07T01:34:53;0.40;;;0.30;;
19794;SDS011;10057;59.402;17.866;2022-08-07T01:37:22;1.40;;;0.20;;
19794;SDS011;10057;59.402;17.866;2022-08-07T01:39:50;1.20;;;0.30;;
19794;SDS011;10057;59.402;17.866;2022-08-07T01:42:17;2.10;;;0.30;;
19794;SDS011;10057;59.402;17.866;2022-08-07T01:45:04;0.13;;;0.13;;
19794;SDS011;10057;59.402;17.866;2022-08-07T01:47:43;0.47;;;0.20;;
19794;SDS011;10057;59.402;17.866;2022-08-07T01:50:30;4.43;;;0.30;;
19794;SDS011;10057;59.402;17.866;2022-08-07T01:52:58;3.40;;;0.30;;
19794;SDS011;10057;59.402;17.866;2022-08-07T01:55:36;0.67;;;0.30;;
19794;SDS011;10057;59.402;17.866;2022-08-07T01:58:09;1.27;;;0.27;;
19794;SDS011;10057;59.402;17.866;2022-08-07T02:00:57;0.67;;;0.20;;
19794;SDS011;10057;59.402;17.866;2022-08-07T02:03:51;0.40;;;0.30;;
19794;SDS011;10057;59.402;17.866;2022-08-07T02:06:26;0.63;;;0.27;;
19794;SDS011;10057;59.402;17.866;2022-08-07T02:08:57;0.63;;;0.30;;
19794;SDS011;10057;59.402;17.866;2022-08-07T02:11:34;2.83;;;0.30;;
19794;SDS011;10057;59.402;17.866;2022-08-07T02:14:24;1.80;;;0.40;;
19794;SDS011;10057;59.402;17.866;2022-08-07T02:17:05;2.00;;;0.30;;
19794;SDS011;10057;59.402;17.866;2022-08-07T02:19:36;1.37;;;0.27;;
19794;SDS011;10057;59.402;17.866;2022-08-07T02:22:27;2.00;;;0.30;;
19794;SDS011;10057;59.402;17.866;2022-08-07T02:24:56;0.77;;;0.30;;
19794;SDS011;10057;59.402;17.866;2022-08-07T02:27:26;0.57;;;0.30;;
19794;SDS011;10057;59.402;17.866;2022-08-07T02:30:00;1.43;;;0.30;;
19794;SDS011;10057;59.402;17.866;2022-08-07T02:32:32;0.67;;;0.20;;
19794;SDS011;10057;59.402;17.866;2022-08-07T02:35:23;2.07;;;0.40;;
19794;SDS011;10057;59.402;17.866;2022-08-07T02:38:12;5.83;;;0.50;;
19794;SDS011;10057;59.402;17.866;2022-08-07T02:40:41;0.60;;;0.30;;
19794;SDS011;10057;59.402;17.866;2022-08-07T02:43:12;0.97;;;0.30;;
19794;SDS011;10057;59.402;17.866;2022-08-07T02:45:41;2.67;;;0.33;;
19794;SDS011;10057;59.402;17.866;2022-08-07T02:48:28;2.80;;;0.30;;
19794;SDS011;10057;59.402;17.866;2022-08-07T02:50:56;0.87;;;0.30;;
19794;SDS011;10057;59.402;17.866;2022-08-07T02:53:33;0.73;;;0.30;;
19794;SDS011;10057;59.402;17.866;2022-08-07T02:56:05;0.60;;;0.30;;
19794;SDS011;10057;59.402;17.866;2022-08-07T02:58:46;0.87;;;0.40;;
19794;SDS011;10057;59.402;17.866;2022-08-07T03:01:19;2.90;;;0.30;;
19794;SDS011;10057;59.402;17.866;2022-08-07T03:04:02;1.00;;;0.30;;
19794;SDS011;10057;59.402;17.866;2022-08-07T03:06:39;1.63;;;0.30;;
19794;SDS011;10057;59.402;17.866;2022-08-07T03:09:11;2.00;;;0.40;;
19794;SDS011;10057;59.402;17.866;2022-08-07T03:11:39;2.87;;;0.40;;
19794;SDS011;10057;59.402;17.866;2022-08-07T03:14:22;2.20;;;0.40;;
19794;SDS011;10057;59.402;17.866;2022-08-07T03:16:52;0.60;;;0.40;;
19794;SDS011;10057;59.402;17.866;2022-08-07T03:19:20;2.50;;;0.60;;
19794;SDS011;10057;59.402;17.866;2022-08-07T03:21:48;0.83;;;0.30;;
19794;SDS011;10057;59.402;17.866;2022-08-07T03:24:16;4.53;;;0.40;;
19794;SDS011;10057;59.402;17.866;2022-08-07T03:26:53;1.63;;;0.33;;
19794;SDS011;10057;59.402;17.866;2022-08-07T03:29:26;1.70;;;0.43;;
19794;SDS011;10057;59.402;17.866;2022-08-07T03:32:15;2.77;;;0.70;;
19794;SDS011;10057;59.402;17.866;2022-08-07T03:34:45;3.23;;;0.40;;
19794;SDS011;10057;59.402;17.866;2022-08-07T03:37:35;3.97;;;0.67;;
19794;SDS011;10057;59.402;17.866;2022-08-07T03:40:18;1.23;;;0.40;;
19794;SDS011;10057;59.402;17.866;2022-08-07T03:42:47;0.60;;;0.30;;
19794;SDS011;10057;59.402;17.866;2022-08-07T03:45:16;1.67;;;0.40;;
19794;SDS011;10057;59.402;17.866;2022-08-07T03:47:56;1.53;;;0.50;;
19794;SDS011;10057;59.402;17.866;2022-08-07T03:50:24;0.63;;;0.33;;
19794;SDS011;10057;59.402;17.866;2022-08-07T03:52:55;6.87;;;0.70;;
19794;SDS011;10057;59.402;17.866;2022-08-07T03:55:24;0.40;;;0.33;;
19794;SDS011;10057;59.402;17.866;2022-08-07T03:58:13;0.87;;;0.30;;
19794;SDS011;10057;59.402;17.866;2022-08-07T04:00:59;3.93;;;0.40;;
19794;SDS011;10057;59.402;17.866;2022-08-07T04:03:32;3.93;;;0.53;;
19794;SDS011;10057;59.402;17.866;2022-08-07T04:06:19;2.07;;;0.50;;
19794;SDS011;10057;59.402;17.866;2022-08-07T04:09:04;5.37;;;0.57;;
19794;SDS011;10057;59.402;17.866;2022-08-07T04:11:40;0.90;;;0.20;;
19794;SDS011;10057;59.402;17.866;2022-08-07T04:14:27;5.17;;;0.50;;
19794;SDS011;10057;59.402;17.866;2022-08-07T04:17:09;3.77;;;0.60;;
19794;SDS011;10057;59.402;17.866;2022-08-07T04:19:56;1.03;;;0.37;;
19794;SDS011;10057;59.402;17.866;2022-08-07T04:22:22;2.73;;;0.60;;
19794;SDS011;10057;59.402;17.866;2022-08-07T04:24:55;3.43;;;0.70;;
19794;SDS011;10057;59.402;17.866;2022-08-07T04:27:23;1.17;;;0.60;;
19794;SDS011;10057;59.402;17.866;2022-08-07T04:29:51;1.53;;;0.50;;
19794;SDS011;10057;59.402;17.866;2022-08-07T04:32:28;6.00;;;0.53;;
19794;SDS011;10057;59.402;17.866;2022-08-07T04:35:01;3.97;;;0.70;;
19794;SDS011;10057;59.402;17.866;2022-08-07T04:37:30;2.60;;;0.70;;
19794;SDS011;10057;59.402;17.866;2022-08-07T04:40:18;3.83;;;0.80;;
19794;SDS011;10057;59.402;17.866;2022-08-07T04:42:45;4.00;;;0.60;;
19794;SDS011;10057;59.402;17.866;2022-08-07T04:45:17;2.97;;;0.60;;
19794;SDS011;10057;59.402;17.866;2022-08-07T04:48:09;5.43;;;0.70;;
19794;SDS011;10057;59.402;17.866;2022-08-07T04:50:52;4.63;;;0.90;;
19794;SDS011;10057;59.402;17.866;2022-08-07T04:56:23;5.43;;;1.07;;
19794;SDS011;10057;59.402;17.866;2022-08-07T04:59:25;7.00;;;0.67;;
19794;SDS011;10057;59.402;17.866;2022-08-07T05:02:28;2.87;;;0.50;;
19794;SDS011;10057;59.402;17.866;2022-08-07T05:05:09;4.60;;;0.60;;
19794;SDS011;10057;59.402;17.866;2022-08-07T05:08:11;8.00;;;0.70;;
19794;SDS011;10057;59.402;17.866;2022-08-07T05:11:27;6.73;;;0.90;;
19794;SDS011;10057;59.402;17.866;2022-08-07T05:14:19;7.20;;;0.90;;
19794;SDS011;10057;59.402;17.866;2022-08-07T05:17:23;7.07;;;1.10;;
19794;SDS011;10057;59.402;17.866;2022-08-07T05:20:12;2.93;;;0.80;;
19794;SDS011;10057;59.402;17.866;2022-08-07T05:22:43;5.73;;;1.10;;
19794;SDS011;10057;59.402;17.866;2022-08-07T05:25:13;4.03;;;1.10;;
19794;SDS011;10057;59.402;17.866;2022-08-07T05:28:01;7.37;;;0.80;;
19794;SDS011;10057;59.402;17.866;2022-08-07T05:30:48;8.50;;;1.40;;
19794;SDS011;10057;59.402;17.866;2022-08-07T05:33:21;3.70;;;1.00;;
19794;SDS011;10057;59.402;17.866;2022-08-07T05:35:51;3.07;;;0.87;;
19794;SDS011;10057;59.402;17.866;2022-08-07T05:38:20;4.57;;;1.00;;
19794;SDS011;10057;59.402;17.866;2022-08-07T05:41:08;3.07;;;1.17;;
19794;SDS011;10057;59.402;17.866;2022-08-07T05:43:41;2.83;;;0.97;;
19794;SDS011;10057;59.402;17.866;2022-08-07T05:46:30;6.80;;;1.13;;
19794;SDS011;10057;59.402;17.866;2022-08-07T05:49:00;3.03;;;1.00;;
19794;SDS011;10057;59.402;17.866;2022-08-07T05:51:38;4.07;;;1.03;;
19794;SDS011;10057;59.402;17.866;2022-08-07T05:54:12;4.90;;;0.93;;
19794;SDS011;10057;59.402;17.866;2022-08-07T05:56:59;7.13;;;1.50;;
19794;SDS011;10057;59.402;17.866;2022-08-07T05:59:28;5.30;;;1.07;;
19794;SDS011;10057;59.402;17.866;2022-08-07T06:02:20;6.00;;;1.30;;
19794;SDS011;10057;59.402;17.866;2022-08-07T06:04:56;7.93;;;1.27;;
19794;SDS011;10057;59.402;17.866;2022-08-07T06:07:28;4.20;;;1.13;;
19794;SDS011;10057;59.402;17.866;2022-08-07T06:10:16;9.60;;;1.40;;
19794;SDS011;10057;59.402;17.866;2022-08-07T06:12:45;11.37;;;1.33;;
19794;SDS011;10057;59.402;17.866;2022-08-07T06:15:13;7.60;;;1.43;;
19794;SDS011;10057;59.402;17.866;2022-08-07T06:17:41;4.83;;;1.20;;
19794;SDS011;10057;59.402;17.866;2022-08-07T06:20:20;9.83;;;1.20;;
19794;SDS011;10057;59.402;17.866;2022-08-07T06:23:04;9.63;;;2.17;;
19794;SDS011;10057;59.402;17.866;2022-08-07T06:25:53;6.20;;;1.10;;
19794;SDS011;10057;59.402;17.866;2022-08-07T06:28:22;8.53;;;1.20;;
19794;SDS011;10057;59.402;17.866;2022-08-07T06:30:53;6.07;;;1.13;;
19794;SDS011;10057;59.402;17.866;2022-08-07T06:33:20;6.23;;;1.20;;
19794;SDS011;10057;59.402;17.866;2022-08-07T06:35:50;3.37;;;0.90;;
19794;SDS011;10057;59.402;17.866;2022-08-07T06:38:36;5.33;;;1.53;;
19794;SDS011;10057;59.402;17.866;2022-08-07T06:41:08;3.37;;;1.00;;
19794;SDS011;10057;59.402;17.866;2022-08-07T06:43:54;6.80;;;1.17;;
19794;SDS011;10057;59.402;17.866;2022-08-07T06:46:31;7.57;;;1.50;;
19794;SDS011;10057;59.402;17.866;2022-08-07T06:49:00;6.50;;;1.10;;
19794;SDS011;10057;59.402;17.866;2022-08-07T06:51:29;3.67;;;0.90;;
19794;SDS011;10057;59.402;17.866;2022-08-07T06:54:00;5.87;;;1.10;;
19794;SDS011;10057;59.402;17.866;2022-08-07T06:56:48;5.07;;;1.10;;
19794;SDS011;10057;59.402;17.866;2022-08-07T06:59:17;6.80;;;1.30;;
19794;SDS011;10057;59.402;17.866;2022-08-07T07:02:07;4.30;;;1.10;;
19794;SDS011;10057;59.402;17.866;2022-08-07T07:05:00;3.30;;;1.00;;
19794;SDS011;10057;59.402;17.866;2022-08-07T07:07:28;4.30;;;1.10;;
19794;SDS011;10057;59.402;17.866;2022-08-07T07:10:14;5.27;;;1.10;;
19794;SDS011;10057;59.402;17.866;2022-08-07T07:12:53;3.13;;;1.00;;
19794;SDS011;10057;59.402;17.866;2022-08-07T07:15:25;8.13;;;1.27;;
19794;SDS011;10057;59.402;17.866;2022-08-07T07:18:03;7.73;;;1.20;;
19794;SDS011;10057;59.402;17.866;2022-08-07T07:20:36;4.97;;;1.30;;
19794;SDS011;10057;59.402;17.866;2022-08-07T07:23:06;7.00;;;1.40;;
19794;SDS011;10057;59.402;17.866;2022-08-07T07:25:57;8.83;;;1.50;;
19794;SDS011;10057;59.402;17.866;2022-08-07T07:28:52;6.10;;;1.13;;
19794;SDS011;10057;59.402;17.866;2022-08-07T07:31:43;2.17;;;1.10;;
19794;SDS011;10057;59.402;17.866;2022-08-07T07:34:16;7.23;;;1.30;;
19794;SDS011;10057;59.402;17.866;2022-08-07T07:36:57;4.00;;;1.20;;
19794;SDS011;10057;59.402;17.866;2022-08-07T07:39:40;4.40;;;1.10;;
19794;SDS011;10057;59.402;17.866;2022-08-07T07:42:21;9.57;;;1.10;;
19794;SDS011;10057;59.402;17.866;2022-08-07T07:44:58;3.57;;;1.10;;
19794;SDS011;10057;59.402;17.866;2022-08-07T07:47:28;10.57;;;1.10;;
19794;SDS011;10057;59.402;17.866;2022-08-07T07:50:15;7.87;;;1.57;;
19794;SDS011;10057;59.402;17.866;2022-08-07T07:53:03;5.13;;;1.40;;
19794;SDS011;10057;59.402;17.866;2022-08-07T07:55:49;9.10;;;1.10;;
19794;SDS011;10057;59.402;17.866;2022-08-07T07:58:28;6.47;;;1.20;;
19794;SDS011;10057;59.402;17.866;2022-08-07T08:01:06;4.63;;;0.90;;
19794;SDS011;10057;59.402;17.866;2022-08-07T08:03:54;6.47;;;1.30;;
19794;SDS011;10057;59.402;17.866;2022-08-07T08:06:36;4.17;;;1.20;;
19794;SDS011;10057;59.402;17.866;2022-08-07T08:09:04;5.97;;;1.30;;
19794;SDS011;10057;59.402;17.866;2022-08-07T08:11:34;6.63;;;0.90;;
19794;SDS011;10057;59.402;17.866;2022-08-07T08:14:22;7.10;;;1.20;;
19794;SDS011;10057;59.402;17.866;2022-08-07T08:16:51;4.60;;;1.10;;
19794;SDS011;10057;59.402;17.866;2022-08-07T08:19:41;4.47;;;1.00;;
19794;SDS011;10057;59.402;17.866;2022-08-07T08:22:29;7.07;;;1.13;;
19794;SDS011;10057;59.402;17.866;2022-08-07T08:25:21;5.17;;;0.90;;
19794;SDS011;10057;59.402;17.866;2022-08-07T08:28:27;7.40;;;1.10;;
19794;SDS011;10057;59.402;17.866;2022-08-07T08:31:04;2.47;;;0.90;;
19794;SDS011;10057;59.402;17.866;2022-08-07T08:33:47;8.37;;;1.37;;
19794;SDS011;10057;59.402;17.866;2022-08-07T08:36:23;6.60;;;1.30;;
19794;SDS011;10057;59.402;17.866;2022-08-07T08:38:56;4.63;;;1.00;;
19794;SDS011;10057;59.402;17.866;2022-08-07T08:44:29;5.43;;;1.30;;
19794;SDS011;10057;59.402;17.866;2022-08-07T08:47:16;4.50;;;1.30;;
19794;SDS011;10057;59.402;17.866;2022-08-07T08:55:49;6.90;;;1.10;;
19794;SDS011;10057;59.402;17.866;2022-08-07T08:58:35;6.93;;;1.40;;
19794;SDS011;10057;59.402;17.866;2022-08-07T09:01:21;6.17;;;1.37;;
19794;SDS011;10057;59.402;17.866;2022-08-07T09:04:08;5.73;;;1.30;;
19794;SDS011;10057;59.402;17.866;2022-08-07T09:18:38;4.50;;;1.30;;
19794;SDS011;10057;59.402;17.866;2022-08-07T09:24:43;5.80;;;0.90;;
19794;SDS011;10057;59.402;17.866;2022-08-07T09:30:26;5.20;;;1.13;;
19794;SDS011;10057;59.402;17.866;2022-08-07T09:33:07;6.53;;;1.00;;
19794;SDS011;10057;59.402;17.866;2022-08-07T09:50:29;4.60;;;1.20;;
19794;SDS011;10057;59.402;17.866;2022-08-07T09:53:02;5.00;;;1.10;;
19794;SDS011;10057;59.402;17.866;2022-08-07T10:04:30;5.33;;;1.20;;
19794;SDS011;10057;59.402;17.866;2022-08-07T10:10:51;5.67;;;1.10;;
19794;SDS011;10057;59.402;17.866;2022-08-07T10:30:16;9.27;;;1.30;;
19794;SDS011;10057;59.402;17.866;2022-08-07T10:39:09;4.50;;;0.90;;
19794;SDS011;10057;59.402;17.866;2022-08-07T10:41:43;4.07;;;1.20;;
19794;SDS011;10057;59.402;17.866;2022-08-07T10:47:28;4.97;;;1.00;;
19794;SDS011;10057;59.402;17.866;2022-08-07T10:50:23;4.67;;;1.00;;
19794;SDS011;10057;59.402;17.866;2022-08-07T10:53:09;3.30;;;1.00;;
19794;SDS011;10057;59.402;17.866;2022-08-07T10:55:50;2.97;;;0.90;;
19794;SDS011;10057;59.402;17.866;2022-08-07T10:58:33;5.57;;;1.00;;
19794;SDS011;10057;59.402;17.866;2022-08-07T11:07:13;3.87;;;1.00;;
19794;SDS011;10057;59.402;17.866;2022-08-07T11:10:13;3.00;;;1.10;;
19794;SDS011;10057;59.402;17.866;2022-08-07T11:12:51;3.83;;;1.10;;
19794;SDS011;10057;59.402;17.866;2022-08-07T11:15:28;3.27;;;1.00;;
19794;SDS011;10057;59.402;17.866;2022-08-07T11:20:34;2.77;;;1.00;;
19794;SDS011;10057;59.402;17.866;2022-08-07T11:23:25;4.90;;;1.00;;
19794;SDS011;10057;59.402;17.866;2022-08-07T11:29:15;2.80;;;0.90;;
19794;SDS011;10057;59.402;17.866;2022-08-07T11:32:15;4.87;;;0.97;;
19794;SDS011;10057;59.402;17.866;2022-08-07T11:34:55;5.73;;;1.30;;
19794;SDS011;10057;59.402;17.866;2022-08-07T11:40:38;3.07;;;0.93;;
19794;SDS011;10057;59.402;17.866;2022-08-07T11:46:14;3.00;;;0.87;;
19794;SDS011;10057;59.402;17.866;2022-08-07T11:52:33;3.43;;;1.00;;
19794;SDS011;10057;59.402;17.866;2022-08-07T11:55:07;4.03;;;0.87;;
19794;SDS011;10057;59.402;17.866;2022-08-07T11:58:01;1.53;;;0.80;;
19794;SDS011;10057;59.402;17.866;2022-08-07T12:03:41;1.77;;;0.63;;
19794;SDS011;10057;59.402;17.866;2022-08-07T12:06:33;1.87;;;0.77;;
19794;SDS011;10057;59.402;17.866;2022-08-07T12:09:38;1.90;;;0.55;;
19794;SDS011;10057;59.402;17.866;2022-08-07T12:12:56;3.43;;;0.70;;
19794;SDS011;10057;59.402;17.866;2022-08-07T12:21:00;5.00;;;0.90;;
19794;SDS011;10057;59.402;17.866;2022-08-07T12:24:17;2.27;;;0.70;;
19794;SDS011;10057;59.402;17.866;2022-08-07T12:27:10;1.97;;;0.80;;
19794;SDS011;10057;59.402;17.866;2022-08-07T12:30:04;1.83;;;0.50;;
19794;SDS011;10057;59.402;17.866;2022-08-07T12:32:52;2.40;;;0.60;;
19794;SDS011;10057;59.402;17.866;2022-08-07T12:35:20;3.55;;;0.88;;
19794;SDS011;10057;59.402;17.866;2022-08-07T12:37:54;3.05;;;0.70;;
19794;SDS011;10057;59.402;17.866;2022-08-07T12:40:43;3.13;;;0.73;;
19794;SDS011;10057;59.402;17.866;2022-08-07T12:43:17;1.58;;;0.47;;
19794;SDS011;10057;59.402;17.866;2022-08-07T12:46:29;1.33;;;0.50;;
19794;SDS011;10057;59.402;17.866;2022-08-07T12:52:19;1.60;;;0.40;;
19794;SDS011;10057;59.402;17.866;2022-08-07T12:55:15;1.42;;;0.50;;
19794;SDS011;10057;59.402;17.866;2022-08-07T12:58:06;1.42;;;0.60;;
19794;SDS011;10057;59.402;17.866;2022-08-07T13:15:22;4.22;;;0.60;;
19794;SDS011;10057;59.402;17.866;2022-08-07T13:21:12;1.63;;;0.70;;
19794;SDS011;10057;59.402;17.866;2022-08-07T13:24:23;2.15;;;0.80;;
19794;SDS011;10057;59.402;17.866;2022-08-07T13:29:42;1.65;;;0.80;;
19794;SDS011;10057;59.402;17.866;2022-08-07T13:32:29;0.77;;;0.40;;
19794;SDS011;10057;59.402;17.866;2022-08-07T13:35:08;2.45;;;0.90;;
19794;SDS011;10057;59.402;17.866;2022-08-07T13:37:56;1.58;;;0.68;;
19794;SDS011;10057;59.402;17.866;2022-08-07T13:43:31;4.32;;;1.00;;
19794;SDS011;10057;59.402;17.866;2022-08-07T13:46:07;1.95;;;0.80;;
19794;SDS011;10057;59.402;17.866;2022-08-07T13:48:51;1.55;;;0.70;;
19794;SDS011;10057;59.402;17.866;2022-08-07T13:51:25;2.50;;;0.85;;
19794;SDS011;10057;59.402;17.866;2022-08-07T13:54:14;2.33;;;0.60;;
19794;SDS011;10057;59.402;17.866;2022-08-07T13:56:51;2.33;;;0.73;;
19794;SDS011;10057;59.402;17.866;2022-08-07T13:59:26;1.63;;;0.90;;
19794;SDS011;10057;59.402;17.866;2022-08-07T14:02:01;3.75;;;1.10;;
19794;SDS011;10057;59.402;17.866;2022-08-07T14:04:55;1.67;;;0.70;;
19794;SDS011;10057;59.402;17.866;2022-08-07T14:07:27;2.78;;;0.82;;
19794;SDS011;10057;59.402;17.866;2022-08-07T14:09:59;1.52;;;0.60;;
19794;SDS011;10057;59.402;17.866;2022-08-07T14:12:48;2.10;;;0.68;;
19794;SDS011;10057;59.402;17.866;2022-08-07T14:18:12;2.95;;;0.90;;
19794;SDS011;10057;59.402;17.866;2022-08-07T14:21:03;2.88;;;0.90;;
19794;SDS011;10057;59.402;17.866;2022-08-07T14:24:00;2.15;;;1.00;;
19794;SDS011;10057;59.402;17.866;2022-08-07T14:26:36;4.15;;;0.80;;
19794;SDS011;10057;59.402;17.866;2022-08-07T14:29:17;1.60;;;0.73;;
19794;SDS011;10057;59.402;17.866;2022-08-07T14:32:06;3.60;;;1.10;;
19794;SDS011;10057;59.402;17.866;2022-08-07T14:34:43;3.08;;;0.77;;
19794;SDS011;10057;59.402;17.866;2022-08-07T14:37:13;1.80;;;0.60;;
19794;SDS011;10057;59.402;17.866;2022-08-07T14:39:43;2.00;;;0.80;;
19794;SDS011;10057;59.402;17.866;2022-08-07T14:42:31;2.65;;;0.80;;
19794;SDS011;10057;59.402;17.866;2022-08-07T14:45:22;1.23;;;0.65;;
19794;SDS011;10057;59.402;17.866;2022-08-07T14:48:12;1.73;;;0.50;;
19794;SDS011;10057;59.402;17.866;2022-08-07T14:50:52;1.27;;;0.60;;
19794;SDS011;10057;59.402;17.866;2022-08-07T14:53:21;2.63;;;0.70;;
19794;SDS011;10057;59.402;17.866;2022-08-07T14:56:11;1.33;;;0.77;;
19794;SDS011;10057;59.402;17.866;2022-08-07T14:58:56;3.03;;;0.60;;
19794;SDS011;10057;59.402;17.866;2022-08-07T15:01:28;2.30;;;0.70;;
19794;SDS011;10057;59.402;17.866;2022-08-07T15:04:16;1.73;;;0.70;;
19794;SDS011;10057;59.402;17.866;2022-08-07T15:06:44;1.40;;;0.80;;
19794;SDS011;10057;59.402;17.866;2022-08-07T15:09:14;1.50;;;0.67;;
19794;SDS011;10057;59.402;17.866;2022-08-07T15:12:08;0.90;;;0.60;;
19794;SDS011;10057;59.402;17.866;2022-08-07T15:15:03;0.80;;;0.50;;
19794;SDS011;10057;59.402;17.866;2022-08-07T15:17:51;4.03;;;0.80;;
19794;SDS011;10057;59.402;17.866;2022-08-07T15:20:24;1.48;;;0.70;;
19794;SDS011;10057;59.402;17.866;2022-08-07T15:23:24;1.07;;;0.70;;
19794;SDS011;10057;59.402;17.866;2022-08-07T15:26:13;2.20;;;0.70;;
19794;SDS011;10057;59.402;17.866;2022-08-07T15:29:04;2.20;;;1.13;;
19794;SDS011;10057;59.402;17.866;2022-08-07T15:31:53;3.23;;;0.70;;
19794;SDS011;10057;59.402;17.866;2022-08-07T15:34:34;1.10;;;0.63;;
19794;SDS011;10057;59.402;17.866;2022-08-07T15:37:15;3.63;;;0.82;;
19794;SDS011;10057;59.402;17.866;2022-08-07T15:39:53;1.57;;;0.60;;
19794;SDS011;10057;59.402;17.866;2022-08-07T15:42:34;1.77;;;0.80;;
19794;SDS011;10057;59.402;17.866;2022-08-07T15:45:14;2.85;;;0.77;;
19794;SDS011;10057;59.402;17.866;2022-08-07T15:48:22;1.88;;;0.50;;
19794;SDS011;10057;59.402;17.866;2022-08-07T15:50:55;2.40;;;0.60;;
19794;SDS011;10057;59.402;17.866;2022-08-07T15:53:38;1.40;;;0.70;;
19794;SDS011;10057;59.402;17.866;2022-08-07T15:56:19;1.65;;;0.50;;
19794;SDS011;10057;59.402;17.866;2022-08-07T15:58:53;0.88;;;0.70;;
19794;SDS011;10057;59.402;17.866;2022-08-07T16:01:33;1.42;;;0.70;;
19794;SDS011;10057;59.402;17.866;2022-08-07T16:04:06;1.45;;;0.68;;
19794;SDS011;10057;59.402;17.866;2022-08-07T16:09:11;3.03;;;0.60;;
19794;SDS011;10057;59.402;17.866;2022-08-07T16:17:31;3.20;;;0.70;;
19794;SDS011;10057;59.402;17.866;2022-08-07T16:23:43;2.80;;;0.73;;
19794;SDS011;10057;59.402;17.866;2022-08-07T16:29:49;2.35;;;0.70;;
19794;SDS011;10057;59.402;17.866;2022-08-07T16:33:07;1.20;;;0.70;;
19794;SDS011;10057;59.402;17.866;2022-08-07T16:44:54;4.38;;;0.80;;
19794;SDS011;10057;59.402;17.866;2022-08-07T16:54:25;2.08;;;0.90;;
19794;SDS011;10057;59.402;17.866;2022-08-07T16:59:50;5.13;;;1.65;;
19794;SDS011;10057;59.402;17.866;2022-08-07T17:15:02;2.75;;;1.00;;
19794;SDS011;10057;59.402;17.866;2022-08-07T17:22:59;1.40;;;0.85;;
19794;SDS011;10057;59.402;17.866;2022-08-07T17:37:15;1.43;;;0.80;;
19794;SDS011;10057;59.402;17.866;2022-08-07T17:40:08;1.57;;;0.73;;
19794;SDS011;10057;59.402;17.866;2022-08-07T17:43:02;2.03;;;1.00;;
19794;SDS011;10057;59.402;17.866;2022-08-07T17:45:49;3.47;;;0.87;;
19794;SDS011;10057;59.402;17.866;2022-08-07T17:48:31;1.63;;;0.77;;
19794;SDS011;10057;59.402;17.866;2022-08-07T17:51:07;3.77;;;0.90;;
19794;SDS011;10057;59.402;17.866;2022-08-07T17:57:15;2.53;;;0.97;;
19794;SDS011;10057;59.402;17.866;2022-08-07T17:59:46;1.90;;;1.00;;
19794;SDS011;10057;59.402;17.866;2022-08-07T18:02:21;2.87;;;1.00;;
19794;SDS011;10057;59.402;17.866;2022-08-07T18:07:51;2.10;;;1.03;;
19794;SDS011;10057;59.402;17.866;2022-08-07T18:10:40;2.47;;;1.00;;
19794;SDS011;10057;59.402;17.866;2022-08-07T18:19:06;1.23;;;0.80;;
19794;SDS011;10057;59.402;17.866;2022-08-07T18:22:09;2.63;;;1.30;;
19794;SDS011;10057;59.402;17.866;2022-08-07T18:24:54;1.83;;;0.70;;
19794;SDS011;10057;59.402;17.866;2022-08-07T18:30:58;2.90;;;1.00;;
19794;SDS011;10057;59.402;17.866;2022-08-07T18:40:28;2.63;;;0.90;;
19794;SDS011;10057;59.402;17.866;2022-08-07T18:46:28;2.17;;;0.80;;
19794;SDS011;10057;59.402;17.866;2022-08-07T19:00:59;3.57;;;1.00;;
19794;SDS011;10057;59.402;17.866;2022-08-07T19:04:07;3.47;;;0.90;;
19794;SDS011;10057;59.402;17.866;2022-08-07T19:07:06;2.30;;;1.47;;
19794;SDS011;10057;59.402;17.866;2022-08-07T19:10:14;2.80;;;1.17;;
19794;SDS011;10057;59.402;17.866;2022-08-07T19:13:02;1.60;;;1.10;;
19794;SDS011;10057;59.402;17.866;2022-08-07T19:27:02;2.80;;;1.10;;
19794;SDS011;10057;59.402;17.866;2022-08-07T19:29:51;3.03;;;1.17;;
19794;SDS011;10057;59.402;17.866;2022-08-07T19:32:42;1.83;;;1.00;;
19794;SDS011;10057;59.402;17.866;2022-08-07T19:35:20;4.17;;;1.30;;
19794;SDS011;10057;59.402;17.866;2022-08-07T19:37:54;2.53;;;1.27;;
19794;SDS011;10057;59.402;17.866;2022-08-07T19:40:25;2.13;;;1.27;;
19794;SDS011;10057;59.402;17.866;2022-08-07T19:43:00;1.97;;;1.10;;
19794;SDS011;10057;59.402;17.866;2022-08-07T19:45:58;1.83;;;1.30;;
19794;SDS011;10057;59.402;17.866;2022-08-07T19:51:09;2.50;;;1.27;;
19794;SDS011;10057;59.402;17.866;2022-08-07T19:54:04;2.57;;;1.30;;
19794;SDS011;10057;59.402;17.866;2022-08-07T19:56:51;4.20;;;1.50;;
19794;SDS011;10057;59.402;17.866;2022-08-07T19:59:41;2.40;;;1.30;;
19794;SDS011;10057;59.402;17.866;2022-08-07T20:02:11;3.07;;;1.20;;
19794;SDS011;10057;59.402;17.866;2022-08-07T20:04:54;2.47;;;1.20;;
19794;SDS011;10057;59.402;17.866;2022-08-07T20:07:26;5.67;;;1.00;;